Time;durP1;ratioP1;P1;durP2;ratioP2;P2;SDS_P1;SDS_P2;PMS_P1;PMS_P2;Temp;Humidity;BMP_temperature;BMP_pressure;BME280_temperature;BME280_humidity;BME280_pressure;Samples;Min_cycle;Max_cycle;Signal;HPM_P1;HPM_P2
2023/11/03 00:01:30;;;;;;;21.42;14.32;;;;;;;;;;6216538;28;20109;-94
2023/11/03 00:04:32;;;;;;;22.20;14.80;;;;;;;;;;6233796;28;20057;-96
2023/11/03 00:07:34;;;;;;;22.33;13.88;;;;;;;;;;6232135;28;20078;-93
2023/11/03 00:10:37;;;;;;;26.30;14.32;;;;;;;;;;6229196;28;20057;-93
2023/11/03 00:13:39;;;;;;;21.65;13.68;;;;;;;;;;6228229;28;20057;-96
2023/11/03 00:16:45;;;;;;;29.10;15.05;;;;;;;;;;6234625;28;20057;-96
2023/11/03 00:19:48;;;;;;;30.73;15.73;;;;;;;;;;6231608;28;20208;-96
2023/11/03 00:22:50;;;;;;;31.63;16.00;;;;;;;;;;6233179;28;20065;-95
2023/11/03 00:25:52;;;;;;;32.42;17.75;;;;;;;;;;6227628;28;20058;-94
2023/11/03 00:28:54;;;;;;;31.20;16.90;;;;;;;;;;6232353;28;20061;-96
2023/11/03 00:31:58;;;;;;;31.45;17.55;;;;;;;;;;6236949;28;20297;-96
2023/11/03 00:35:00;;;;;;;36.92;18.50;;;;;;;;;;6216656;28;20049;-95
2023/11/03 00:38:02;;;;;;;34.85;17.85;;;;;;;;;;6231951;28;20088;-95
2023/11/03 00:41:05;;;;;;;32.53;17.42;;;;;;;;;;6233977;28;20053;-96
2023/11/03 00:44:08;;;;;;;39.25;20.88;;;;;;;;;;6227698;28;20117;-96
2023/11/03 00:47:12;;;;;;;37.05;19.05;;;;;;;;;;6210407;28;20117;-96
2023/11/03 00:50:14;;;;;;;36.65;18.98;;;;;;;;;;6197502;28;20048;-95
2023/11/03 00:53:16;;;;;;;39.08;19.67;;;;;;;;;;6195288;28;20242;-95
2023/11/03 00:56:19;;;;;;;41.30;19.83;;;;;;;;;;6230433;28;20136;-96
2023/11/03 00:59:21;;;;;;;43.33;21.73;;;;;;;;;;6230949;28;20065;-96
2023/11/03 01:02:28;;;;;;;41.25;21.10;;;;;;;;;;6217618;28;20245;-96
2023/11/03 01:05:30;;;;;;;39.67;20.10;;;;;;;;;;6228484;28;20112;-95
2023/11/03 01:08:32;;;;;;;41.10;19.60;;;;;;;;;;6226343;28;20400;-93
2023/11/03 01:11:33;;;;;;;41.00;20.40;;;;;;;;;;6233518;28;20079;-94
2023/11/03 01:14:36;;;;;;;40.50;20.48;;;;;;;;;;6231150;28;20227;-96
2023/11/03 01:17:42;;;;;;;44.20;21.77;;;;;;;;;;6230324;28;20046;-96
2023/11/03 01:20:51;;;;;;;41.60;20.85;;;;;;;;;;6227232;28;20046;-96
2023/11/03 01:23:54;;;;;;;44.88;22.05;;;;;;;;;;6230867;28;20061;-96
2023/11/03 01:27:04;;;;;;;45.63;22.05;;;;;;;;;;6235445;28;20083;-96
2023/11/03 01:30:13;;;;;;;40.90;21.65;;;;;;;;;;6205651;28;20053;-96
2023/11/03 01:33:17;;;;;;;39.63;21.45;;;;;;;;;;6230665;28;20058;-95
2023/11/03 01:36:19;;;;;;;44.53;21.30;;;;;;;;;;6221341;28;20121;-93
2023/11/03 01:39:21;;;;;;;39.83;20.40;;;;;;;;;;6205906;28;20061;-94
2023/11/03 01:42:23;;;;;;;42.47;21.02;;;;;;;;;;6200301;28;20370;-95
2023/11/03 01:45:26;;;;;;;37.53;20.42;;;;;;;;;;6203562;28;20050;-96
2023/11/03 01:48:31;;;;;;;40.03;21.20;;;;;;;;;;6206351;28;20057;-93
2023/11/03 01:51:34;;;;;;;45.40;21.25;;;;;;;;;;6208096;28;20044;-96
2023/11/03 01:54:36;;;;;;;42.97;20.60;;;;;;;;;;6202703;28;20076;-96
2023/11/03 01:57:45;;;;;;;41.78;20.52;;;;;;;;;;6207128;28;20458;-96
2023/11/03 02:00:47;;;;;;;36.00;18.98;;;;;;;;;;6202164;28;20050;-96
2023/11/03 02:03:53;;;;;;;37.60;18.67;;;;;;;;;;6209288;28;20049;-96
2023/11/03 02:06:55;;;;;;;45.33;19.17;;;;;;;;;;6207507;28;20114;-96
2023/11/03 02:09:57;;;;;;;41.10;19.90;;;;;;;;;;6208955;28;20091;-96
2023/11/03 02:13:00;;;;;;;37.17;18.98;;;;;;;;;;6209445;28;20049;-96
2023/11/03 02:16:06;;;;;;;39.25;18.98;;;;;;;;;;6198509;28;20058;-96
2023/11/03 02:19:17;;;;;;;34.10;16.70;;;;;;;;;;6202180;28;20114;-96
2023/11/03 02:22:19;;;;;;;37.58;18.85;;;;;;;;;;6191168;28;20059;-95
2023/11/03 02:25:27;;;;;;;35.75;18.33;;;;;;;;;;6198145;28;20054;-96
2023/11/03 02:28:34;;;;;;;33.45;17.27;;;;;;;;;;6195473;28;20049;-96
2023/11/03 02:31:36;;;;;;;31.27;16.92;;;;;;;;;;6205955;28;20058;-96
2023/11/03 02:34:38;;;;;;;34.03;16.95;;;;;;;;;;6213696;28;20062;-96
2023/11/03 02:37:40;;;;;;;37.30;16.90;;;;;;;;;;6185781;28;20045;-96
2023/11/03 02:40:46;;;;;;;29.23;15.98;;;;;;;;;;6203061;28;20042;-96
2023/11/03 02:43:49;;;;;;;30.98;15.75;;;;;;;;;;6207736;28;20057;-96
2023/11/03 02:46:51;;;;;;;33.78;15.77;;;;;;;;;;6205641;28;20106;-95
2023/11/03 02:49:55;;;;;;;33.78;16.23;;;;;;;;;;6202650;28;20058;-97
2023/11/03 02:59:45;;;;;;;21.83;10.77;;;;;;;;;;6202300;28;20046;-96
2023/11/03 03:02:47;;;;;;;16.50;9.00;;;;;;;;;;6189435;28;20054;-96
2023/11/03 03:06:01;;;;;;;15.30;8.18;;;;;;;;;;6191071;28;20050;-96
2023/11/03 03:09:03;;;;;;;12.13;7.35;;;;;;;;;;6198270;28;20291;-95
2023/11/03 03:12:13;;;;;;;13.50;7.25;;;;;;;;;;6206016;28;20065;-96
2023/11/03 03:15:16;;;;;;;12.15;8.02;;;;;;;;;;6190965;28;20055;-96
2023/11/03 03:18:17;;;;;;;12.65;8.25;;;;;;;;;;6205876;28;20062;-95
2023/11/03 03:21:20;;;;;;;14.25;7.93;;;;;;;;;;6202978;28;20355;-93
2023/11/03 03:24:21;;;;;;;14.93;7.80;;;;;;;;;;6200244;28;20068;-95
2023/11/03 03:27:41;;;;;;;13.25;7.93;;;;;;;;;;6204223;28;20058;-96
2023/11/03 03:30:43;;;;;;;12.93;7.43;;;;;;;;;;6208550;28;20055;-96
2023/11/03 03:33:49;;;;;;;12.25;7.82;;;;;;;;;;6186792;28;20081;-96
2023/11/03 03:36:52;;;;;;;12.80;7.75;;;;;;;;;;6191155;28;20325;-96
2023/11/03 03:40:00;;;;;;;14.90;8.07;;;;;;;;;;6190627;28;20035;-96
2023/11/03 03:46:18;;;;;;;17.65;10.43;;;;;;;;;;6570011;22;20075;-96
2023/11/03 03:49:20;;;;;;;17.52;10.88;;;;;;;;;;6223184;28;20085;-97
2023/11/03 03:52:24;;;;;;;15.20;9.52;;;;;;;;;;6234974;28;20075;-96
2023/11/03 03:55:26;;;;;;;15.98;9.55;;;;;;;;;;6238935;28;20073;-96
2023/11/03 04:33:45;;;;;;;6.90;4.90;;;;;;;;;;7214326;23;20060;-96
2023/11/03 05:24:50;;;;;;;9.02;6.60;;;;;;;;;;6748989;22;20094;31
2023/11/03 05:41:47;;;;;;;11.55;6.90;;;;;;;;;;6274977;22;20125;-96
2023/11/03 06:29:12;;;;;;;0.75;0.20;;;;;;;;;;6478843;22;20030;-96
2023/11/03 06:32:15;;;;;;;0.65;0.17;;;;;;;;;;6253793;23;20118;-96
2023/11/03 06:35:19;;;;;;;0.88;0.10;;;;;;;;;;6367337;23;20041;-96
2023/11/03 06:41:34;;;;;;;2.22;0.28;;;;;;;;;;6398415;23;19917;-96
2023/11/03 07:25:29;;;;;;;0.47;0.20;;;;;;;;;;5909968;29;20055;-96
2023/11/03 07:28:38;;;;;;;0.60;0.10;;;;;;;;;;5971530;29;20043;-96
2023/11/03 07:31:47;;;;;;;0.10;0.00;;;;;;;;;;6032142;29;20131;-96
2023/11/03 08:17:43;;;;;;;0.00;0.00;;;;;;;;;;6214630;28;20053;-96
2023/11/03 08:21:03;;;;;;;1.92;0.30;;;;;;;;;;6205531;28;20074;-96
2023/11/03 08:46:19;;;;;;;4.30;0.68;;;;;;;;;;6404853;22;20042;-96
2023/11/03 08:53:11;;;;;;;4.05;0.85;;;;;;;;;;6229126;28;20045;-96
2023/11/03 08:56:33;;;;;;;1.08;0.63;;;;;;;;;;6216226;28;20061;-96
2023/11/03 08:59:58;;;;;;;1.10;0.75;;;;;;;;;;6194709;28;20078;-96
2023/11/03 09:03:10;;;;;;;1.95;0.80;;;;;;;;;;6205857;28;20058;-96
2023/11/03 09:06:50;;;;;;;3.42;0.77;;;;;;;;;;6166392;28;20061;-96
2023/11/03 09:11:07;;;;;;;2.50;1.13;;;;;;;;;;6153838;28;20054;-96
2023/11/03 09:14:33;;;;;;;;;;;;;;;;;;6155912;28;20046;-95
2023/11/03 09:17:45;;;;;;;2.78;0.70;;;;;;;;;;6206810;28;19917;-95
2023/11/03 09:31:18;;;;;;;1.13;0.50;;;;;;;;;;6171960;28;20042;-96
2023/11/03 09:48:12;;;;;;;1.95;0.98;;;;;;;;;;6240836;28;20048;-95
2023/11/03 09:51:20;;;;;;;3.25;1.15;;;;;;;;;;6245531;28;20342;-96
2023/11/03 09:54:45;;;;;;;2.88;1.10;;;;;;;;;;6224695;28;20045;-96
2023/11/03 10:01:23;;;;;;;2.05;1.05;;;;;;;;;;6185984;28;20085;-96
2023/11/03 10:04:26;;;;;;;2.25;1.02;;;;;;;;;;6208726;28;20102;-96
2023/11/03 10:07:29;;;;;;;2.58;1.33;;;;;;;;;;6216148;28;20050;-96
2023/11/03 10:10:39;;;;;;;2.63;1.60;;;;;;;;;;6216134;28;20106;-96
2023/11/03 10:13:44;;;;;;;4.38;1.45;;;;;;;;;;6193308;28;20046;-96
2023/11/03 10:16:51;;;;;;;3.42;2.05;;;;;;;;;;6208110;28;20058;-96
2023/11/03 10:19:55;;;;;;;4.70;2.00;;;;;;;;;;6205795;28;20116;-95
2023/11/03 10:22:58;;;;;;;5.22;2.00;;;;;;;;;;6219482;28;20111;-96
2023/11/03 10:25:59;;;;;;;4.18;2.20;;;;;;;;;;6219875;28;20050;-96
2023/11/03 10:29:05;;;;;;;4.13;2.35;;;;;;;;;;6201826;28;20066;-95
2023/11/03 10:32:10;;;;;;;4.78;2.38;;;;;;;;;;6219602;28;20422;-96
2023/11/03 10:35:14;;;;;;;5.00;2.92;;;;;;;;;;6201745;28;20050;-96
2023/11/03 10:38:20;;;;;;;3.78;1.88;;;;;;;;;;6176096;28;20055;-94
2023/11/03 10:41:32;;;;;;;3.35;2.10;;;;;;;;;;6173743;28;20098;-96
2023/11/03 10:44:39;;;;;;;3.47;2.00;;;;;;;;;;6174465;28;20070;-93
2023/11/03 10:47:52;;;;;;;4.82;1.90;;;;;;;;;;6161569;28;20051;-95
2023/11/03 10:51:00;;;;;;;4.07;2.33;;;;;;;;;;6172099;28;20058;-94
2023/11/03 10:54:12;;;;;;;4.55;2.40;;;;;;;;;;6174174;28;20054;-94
2023/11/03 10:57:16;;;;;;;3.35;2.10;;;;;;;;;;6184262;28;20058;-95
2023/11/03 11:00:24;;;;;;;4.22;2.67;;;;;;;;;;6172196;28;20113;-96
2023/11/03 11:03:28;;;;;;;5.15;3.58;;;;;;;;;;6171087;28;20047;-95
2023/11/03 11:06:33;;;;;;;13.77;7.03;;;;;;;;;;6168495;28;20145;-96
2023/11/03 11:09:41;;;;;;;9.60;5.75;;;;;;;;;;6161555;28;20046;-94
2023/11/03 11:12:47;;;;;;;19.50;9.10;;;;;;;;;;6183829;28;20123;-96
2023/11/03 11:16:08;;;;;;;6.30;3.03;;;;;;;;;;6166808;28;20074;-95
2023/11/03 11:19:12;;;;;;;4.18;2.95;;;;;;;;;;6164298;28;20059;-94
2023/11/03 11:22:15;;;;;;;4.20;2.75;;;;;;;;;;6169443;28;20047;-96
2023/11/03 11:25:18;;;;;;;5.97;2.78;;;;;;;;;;6166237;28;20058;-96
2023/11/03 11:28:35;;;;;;;3.70;2.67;;;;;;;;;;6170158;28;20046;-96
2023/11/03 11:31:38;;;;;;;4.43;2.95;;;;;;;;;;6177043;28;20109;-94
2023/11/03 11:34:42;;;;;;;3.83;2.42;;;;;;;;;;6166337;28;20050;-94
2023/11/03 11:37:44;;;;;;;3.35;2.08;;;;;;;;;;6214939;28;20054;-93
2023/11/03 11:40:47;;;;;;;4.85;2.35;;;;;;;;;;6216556;28;20211;-94
2023/11/03 11:43:50;;;;;;;4.90;2.58;;;;;;;;;;6202103;28;20058;-93
2023/11/03 11:46:54;;;;;;;3.80;2.05;;;;;;;;;;6215611;28;20054;-94
2023/11/03 11:49:58;;;;;;;2.28;1.70;;;;;;;;;;6216117;28;20056;-93
2023/11/03 11:53:01;;;;;;;2.13;1.20;;;;;;;;;;6202140;28;20097;-94
2023/11/03 11:56:06;;;;;;;1.63;1.08;;;;;;;;;;6218271;28;20121;-94
2023/11/03 11:59:09;;;;;;;2.05;0.82;;;;;;;;;;6217864;28;20050;-91
2023/11/03 12:02:11;;;;;;;2.57;0.80;;;;;;;;;;6219913;28;20050;-92
2023/11/03 12:05:19;;;;;;;1.65;0.80;;;;;;;;;;6220946;28;20344;-91
2023/11/03 12:08:21;;;;;;;1.98;0.77;;;;;;;;;;6220510;28;20081;-94
2023/11/03 12:11:23;;;;;;;7.75;3.40;;;;;;;;;;6229754;28;20049;-93
2023/11/03 12:14:26;;;;;;;123.28;53.80;;;;;;;;;;6230995;28;20134;-92
2023/11/03 12:17:29;;;;;;;;;;;;;;;;;;6224715;28;20050;-93
2023/11/03 12:20:32;;;;;;;47.58;24.83;;;;;;;;;;6212991;28;19925;-93
2023/11/03 12:23:35;;;;;;;1.40;1.00;;;;;;;;;;6188754;28;20270;-93
2023/11/03 12:26:37;;;;;;;3.22;0.80;;;;;;;;;;6222243;28;20223;-91
2023/11/03 12:29:39;;;;;;;1.10;0.50;;;;;;;;;;6209919;28;20046;-93
2023/11/03 12:32:42;;;;;;;1.42;0.50;;;;;;;;;;6211841;28;20109;-89
2023/11/03 12:35:46;;;;;;;2.33;0.22;;;;;;;;;;6223147;28;20053;-94
2023/11/03 12:38:49;;;;;;;0.40;0.30;;;;;;;;;;6222699;28;20073;-96
2023/11/03 12:42:02;;;;;;;1.10;0.50;;;;;;;;;;6213840;28;20057;-94
2023/11/03 12:45:05;;;;;;;0.63;0.30;;;;;;;;;;6210678;28;20050;-94
2023/11/03 12:48:19;;;;;;;1.73;0.50;;;;;;;;;;6218638;28;20054;-93
2023/11/03 12:58:13;;;;;;;1.48;0.50;;;;;;;;;;6185488;28;20058;-96
2023/11/03 13:01:16;;;;;;;0.70;0.40;;;;;;;;;;6202822;28;20093;-95
2023/11/03 13:04:19;;;;;;;2.40;0.60;;;;;;;;;;6202166;28;20050;-92
2023/11/03 13:07:22;;;;;;;1.15;0.50;;;;;;;;;;6217976;28;20058;-93
2023/11/03 13:10:25;;;;;;;1.85;0.40;;;;;;;;;;6215965;28;20053;-92
2023/11/03 13:13:33;;;;;;;2.15;0.38;;;;;;;;;;6215776;28;20230;-90
2023/11/03 13:16:35;;;;;;;0.55;0.30;;;;;;;;;;6219265;28;20302;-91
2023/11/03 13:19:38;;;;;;;0.95;0.30;;;;;;;;;;6214259;28;20199;-92
2023/11/03 13:22:43;;;;;;;0.70;0.40;;;;;;;;;;6219858;28;20050;-91
2023/11/03 13:25:45;;;;;;;1.73;0.60;;;;;;;;;;6206449;28;20101;-93
2023/11/03 13:28:47;;;;;;;0.60;0.30;;;;;;;;;;6218628;28;20053;-92
2023/11/03 13:31:49;;;;;;;0.73;0.25;;;;;;;;;;6218183;28;20061;-96
2023/11/03 13:34:51;;;;;;;2.50;0.50;;;;;;;;;;6198159;28;20108;-93
2023/11/03 13:37:54;;;;;;;2.70;0.47;;;;;;;;;;6215744;28;20089;-92
2023/11/03 13:40:56;;;;;;;29.48;16.25;;;;;;;;;;6217914;28;20155;-91
2023/11/03 13:44:00;;;;;;;12.38;5.72;;;;;;;;;;6216961;28;20275;-92
2023/11/03 13:47:02;;;;;;;;;;;;;;;;;;6219827;28;20069;-92
2023/11/03 13:50:05;;;;;;;1.13;0.30;;;;;;;;;;6216359;28;19925;-91
2023/11/03 13:53:08;;;;;;;1.33;0.40;;;;;;;;;;6217050;28;20327;-93
2023/11/03 13:56:12;;;;;;;0.65;0.30;;;;;;;;;;6217722;28;20042;-92
2023/11/03 13:59:14;;;;;;;0.90;0.30;;;;;;;;;;6214247;28;20057;-94
2023/11/03 14:02:17;;;;;;;1.67;0.25;;;;;;;;;;6214123;28;20050;-92
2023/11/03 14:05:19;;;;;;;0.30;0.28;;;;;;;;;;6208227;28;20061;-92
2023/11/03 14:08:24;;;;;;;0.40;0.28;;;;;;;;;;6215018;28;20098;-94
2023/11/03 14:11:26;;;;;;;1.23;0.52;;;;;;;;;;6218488;28;20337;-94
2023/11/03 14:14:32;;;;;;;0.47;0.30;;;;;;;;;;6207543;28;20050;-91
2023/11/03 14:17:34;;;;;;;0.40;0.30;;;;;;;;;;6217693;28;20054;-93
2023/11/03 14:20:38;;;;;;;0.85;0.55;;;;;;;;;;6216427;28;20100;-92
2023/11/03 14:23:42;;;;;;;0.85;0.50;;;;;;;;;;6217547;28;20345;-92
2023/11/03 14:26:53;;;;;;;8.00;4.82;;;;;;;;;;6199474;28;20097;-92
2023/11/03 14:29:54;;;;;;;59.97;34.58;;;;;;;;;;6225518;28;20133;-90
2023/11/03 14:32:58;;;;;;;6.47;4.28;;;;;;;;;;6216747;28;20322;-93
2023/11/03 14:35:59;;;;;;;1.40;0.75;;;;;;;;;;6205479;28;20053;-93
2023/11/03 14:39:03;;;;;;;0.65;0.40;;;;;;;;;;6219626;28;20058;-92
2023/11/03 14:42:05;;;;;;;0.45;0.25;;;;;;;;;;6217313;28;20362;-92
2023/11/03 14:45:10;;;;;;;1.13;0.30;;;;;;;;;;6199613;28;20088;-94
2023/11/03 14:48:13;;;;;;;0.38;0.28;;;;;;;;;;6215693;28;20050;-93
2023/11/03 14:51:15;;;;;;;0.80;0.20;;;;;;;;;;6218215;28;20326;-91
2023/11/03 14:54:19;;;;;;;0.75;0.35;;;;;;;;;;6216286;28;20064;-92
2023/11/03 14:57:20;;;;;;;1.02;0.40;;;;;;;;;;6214063;28;20196;-93
2023/11/03 15:00:26;;;;;;;0.60;0.30;;;;;;;;;;6217856;28;20061;-95
2023/11/03 15:03:32;;;;;;;0.50;0.17;;;;;;;;;;6217361;28;20080;-92
2023/11/03 15:06:34;;;;;;;0.70;0.30;;;;;;;;;;6218894;28;20115;-92
2023/11/03 15:09:39;;;;;;;1.87;0.40;;;;;;;;;;6202840;28;20156;-89
2023/11/03 15:12:43;;;;;;;0.63;0.20;;;;;;;;;;6215020;28;20046;-92
2023/11/03 15:15:45;;;;;;;0.68;0.35;;;;;;;;;;6215980;28;20048;-90
2023/11/03 15:18:47;;;;;;;2.30;0.40;;;;;;;;;;6216533;28;20085;-92
2023/11/03 15:21:49;;;;;;;1.15;0.30;;;;;;;;;;6189620;28;20303;-91
2023/11/03 15:24:54;;;;;;;77.25;46.80;;;;;;;;;;6218092;28;20292;-90
2023/11/03 15:27:56;;;;;;;130.73;75.53;;;;;;;;;;6215575;28;20055;-92
2023/11/03 15:30:58;;;;;;;27.60;15.88;;;;;;;;;;6223441;28;20112;-94
2023/11/03 15:34:01;;;;;;;1.52;0.95;;;;;;;;;;6219842;28;20056;-91
2023/11/03 15:37:04;;;;;;;1.95;1.05;;;;;;;;;;6221134;28;20357;-94
2023/11/03 15:40:27;;;;;;;5.65;3.05;;;;;;;;;;6219085;28;20050;-93
2023/11/03 15:43:33;;;;;;;5.32;2.22;;;;;;;;;;6221221;28;20076;-92
2023/11/03 15:46:35;;;;;;;6.85;1.70;;;;;;;;;;6216086;28;20070;-92
2023/11/03 15:49:37;;;;;;;3.33;1.48;;;;;;;;;;6212213;28;20065;-95
2023/11/03 15:52:41;;;;;;;2.75;1.20;;;;;;;;;;6220612;28;20133;-93
2023/11/03 15:55:47;;;;;;;4.03;1.20;;;;;;;;;;6217596;28;20349;-95
2023/11/03 15:58:49;;;;;;;2.40;1.30;;;;;;;;;;6205105;28;20049;-93
2023/11/03 16:01:51;;;;;;;1.52;1.02;;;;;;;;;;6220414;28;20050;-94
2023/11/03 16:04:54;;;;;;;4.47;0.90;;;;;;;;;;6220011;28;20066;-91
2023/11/03 16:07:56;;;;;;;1.90;1.00;;;;;;;;;;6212048;28;20168;-92
2023/11/03 16:11:00;;;;;;;3.92;1.73;;;;;;;;;;6218475;28;20050;-90
2023/11/03 16:14:03;;;;;;;5.20;1.52;;;;;;;;;;6207707;28;20077;-91
2023/11/03 16:17:05;;;;;;;5.15;1.60;;;;;;;;;;6220247;28;20075;-93
2023/11/03 16:20:09;;;;;;;4.90;1.83;;;;;;;;;;6222306;28;20117;-91
2023/11/03 16:23:11;;;;;;;4.00;1.70;;;;;;;;;;6219620;28;20080;-93
2023/11/03 16:26:16;;;;;;;6.20;2.40;;;;;;;;;;6205126;28;20064;-90
2023/11/03 16:29:18;;;;;;;4.70;2.15;;;;;;;;;;6187746;28;20451;-93
2023/11/03 16:32:20;;;;;;;7.70;1.95;;;;;;;;;;6216936;28;20049;-90
2023/11/03 16:35:23;;;;;;;3.72;1.77;;;;;;;;;;6198527;28;20089;-91
2023/11/03 16:38:25;;;;;;;5.30;1.80;;;;;;;;;;6214545;28;20113;-89
2023/11/03 16:41:29;;;;;;;35.65;18.85;;;;;;;;;;6218063;28;20088;-88
2023/11/03 16:44:31;;;;;;;49.22;26.40;;;;;;;;;;6200452;28;20762;-93
2023/11/03 16:47:33;;;;;;;8.95;3.88;;;;;;;;;;6218327;28;20058;-93
2023/11/03 16:50:36;;;;;;;2.47;1.40;;;;;;;;;;6221956;28;20373;-92
2023/11/03 16:53:37;;;;;;;2.83;1.10;;;;;;;;;;6216243;28;20076;-91
2023/11/03 16:56:43;;;;;;;5.53;2.05;;;;;;;;;;6218393;28;20054;-92
2023/11/03 16:59:46;;;;;;;4.57;1.85;;;;;;;;;;6218839;28;20138;-88
2023/11/03 17:02:48;;;;;;;6.60;2.03;;;;;;;;;;6220116;28;20054;-91
2023/11/03 17:05:50;;;;;;;7.38;2.10;;;;;;;;;;6217274;28;20066;-93
2023/11/03 17:08:53;;;;;;;4.20;2.22;;;;;;;;;;6216934;28;20050;-89
2023/11/03 17:11:57;;;;;;;8.52;2.28;;;;;;;;;;6215538;28;20061;-92
2023/11/03 17:14:59;;;;;;;4.80;2.08;;;;;;;;;;6201669;28;20070;-89
2023/11/03 17:18:02;;;;;;;3.45;1.85;;;;;;;;;;6215141;28;20061;-89
2023/11/03 17:21:05;;;;;;;3.97;2.27;;;;;;;;;;6220217;28;20069;-90
2023/11/03 17:24:08;;;;;;;5.07;2.55;;;;;;;;;;6220959;28;20069;-90
2023/11/03 17:27:12;;;;;;;4.65;2.28;;;;;;;;;;6196536;28;20057;-92
2023/11/03 17:30:15;;;;;;;4.57;2.33;;;;;;;;;;6202789;28;20050;-90
2023/11/03 17:33:17;;;;;;;6.82;2.50;;;;;;;;;;6204732;28;20057;-92
2023/11/03 17:36:22;;;;;;;6.03;2.63;;;;;;;;;;6220221;28;20315;-92
2023/11/03 17:39:27;;;;;;;4.05;2.20;;;;;;;;;;6202754;28;20323;-92
2023/11/03 17:42:30;;;;;;;5.45;2.92;;;;;;;;;;6217002;28;20336;-92
2023/11/03 17:45:33;;;;;;;10.73;2.60;;;;;;;;;;6205933;28;20054;-92
2023/11/03 17:48:35;;;;;;;6.00;2.60;;;;;;;;;;6217593;28;20080;-93
2023/11/03 17:51:39;;;;;;;6.43;2.75;;;;;;;;;;6219667;28;20053;-91
2023/11/03 17:54:41;;;;;;;7.00;2.50;;;;;;;;;;6216892;28;20152;-93
2023/11/03 18:01:02;;;;;;;88.82;42.50;;;;;;;;;;6216077;28;20080;-92
2023/11/03 18:04:05;;;;;;;16.83;8.73;;;;;;;;;;6202684;28;20046;-93
2023/11/03 18:07:11;;;;;;;14.13;3.78;;;;;;;;;;6204874;28;20066;-92
2023/11/03 18:10:14;;;;;;;6.95;2.85;;;;;;;;;;6210623;28;20061;-91
2023/11/03 18:13:17;;;;;;;5.20;2.40;;;;;;;;;;6218661;28;20393;-92
2023/11/03 18:16:24;;;;;;;7.57;2.78;;;;;;;;;;6215297;28;20210;-93
2023/11/03 18:19:27;;;;;;;9.98;3.70;;;;;;;;;;6219556;28;20109;-92
2023/11/03 18:22:29;;;;;;;7.25;3.17;;;;;;;;;;6217767;28;20049;-94
2023/11/03 18:25:32;;;;;;;7.13;3.47;;;;;;;;;;6216533;28;20042;-93
2023/11/03 18:28:36;;;;;;;8.23;3.13;;;;;;;;;;6219901;28;20069;-92
2023/11/03 18:31:38;;;;;;;5.40;2.63;;;;;;;;;;6214782;28;20077;-90
2023/11/03 18:34:41;;;;;;;5.15;2.70;;;;;;;;;;6218443;28;20042;-94
2023/11/03 18:37:43;;;;;;;9.52;3.70;;;;;;;;;;6215963;28;20327;-92
2023/11/03 18:40:46;;;;;;;4.60;2.75;;;;;;;;;;6216469;28;20061;-92
2023/11/03 18:43:50;;;;;;;5.45;2.60;;;;;;;;;;6216096;28;20357;-93
2023/11/03 18:46:52;;;;;;;4.95;2.60;;;;;;;;;;6198262;28;20050;-93
2023/11/03 18:49:54;;;;;;;5.35;2.60;;;;;;;;;;6216909;28;20092;-93
2023/11/03 18:52:57;;;;;;;5.53;2.90;;;;;;;;;;6214560;28;20058;-93
2023/11/03 18:55:59;;;;;;;5.25;3.10;;;;;;;;;;6219518;28;20343;-95
2023/11/03 18:59:03;;;;;;;6.45;4.15;;;;;;;;;;6221487;28;20051;-93
2023/11/03 19:02:05;;;;;;;6.15;3.22;;;;;;;;;;6215374;28;20060;-94
2023/11/03 19:05:12;;;;;;;7.72;3.53;;;;;;;;;;6214922;28;20246;-92
2023/11/03 19:08:23;;;;;;;6.63;3.70;;;;;;;;;;6212195;28;20089;-93
2023/11/03 19:11:25;;;;;;;6.68;3.35;;;;;;;;;;6221615;28;20058;-93
2023/11/03 19:14:28;;;;;;;6.78;3.92;;;;;;;;;;6226417;28;20064;-91
2023/11/03 19:17:30;;;;;;;7.85;4.30;;;;;;;;;;6218227;28;20057;-94
2023/11/03 19:20:32;;;;;;;6.72;3.95;;;;;;;;;;6224161;28;20045;-94
2023/11/03 19:23:35;;;;;;;7.20;4.65;;;;;;;;;;6223710;28;20129;-93
2023/11/03 19:26:37;;;;;;;9.48;4.45;;;;;;;;;;6221650;28;20405;-93
2023/11/03 19:29:42;;;;;;;8.70;3.85;;;;;;;;;;6220687;28;20058;-93
2023/11/03 19:32:45;;;;;;;7.00;3.92;;;;;;;;;;6209319;28;20050;-92
2023/11/03 19:35:48;;;;;;;6.22;3.80;;;;;;;;;;6196454;28;20342;-93
2023/11/03 19:38:51;;;;;;;9.75;4.25;;;;;;;;;;6221211;28;20073;-94
2023/11/03 19:41:53;;;;;;;7.55;4.30;;;;;;;;;;6220608;28;20061;-92
2023/11/03 19:44:58;;;;;;;8.70;4.18;;;;;;;;;;6222444;28;20242;-93
2023/11/03 19:48:03;;;;;;;9.50;4.18;;;;;;;;;;6219269;28;20054;-93
2023/11/03 19:51:05;;;;;;;8.20;4.07;;;;;;;;;;6203271;28;20073;-94
2023/11/03 19:54:07;;;;;;;8.18;3.83;;;;;;;;;;6222158;28;20050;-94
2023/11/03 19:57:09;;;;;;;9.35;4.40;;;;;;;;;;6224125;28;20115;-93
2023/11/03 20:00:14;;;;;;;9.23;4.18;;;;;;;;;;6221389;28;20088;-94
2023/11/03 20:03:16;;;;;;;6.30;3.58;;;;;;;;;;6222067;28;20067;-93
2023/11/03 20:06:19;;;;;;;7.03;4.05;;;;;;;;;;6222866;28;20097;-93
2023/11/03 20:09:23;;;;;;;7.17;3.70;;;;;;;;;;6209584;28;20582;-91
2023/11/03 20:12:25;;;;;;;;;;;;;;;;;;6201931;28;20353;-94
2023/11/03 20:15:28;;;;;;;8.55;3.63;;;;;;;;;;6224636;28;19976;-95
2023/11/03 20:18:31;;;;;;;7.18;3.45;;;;;;;;;;6216738;28;20050;-94
2023/11/03 20:21:33;;;;;;;6.78;3.85;;;;;;;;;;6225312;28;20054;-92
2023/11/03 20:24:35;;;;;;;5.28;3.47;;;;;;;;;;6219471;28;20246;-94
2023/11/03 20:27:37;;;;;;;7.55;3.85;;;;;;;;;;6216605;28;20056;-92
2023/11/03 20:30:41;;;;;;;7.50;3.50;;;;;;;;;;6204831;28;20053;-95
2023/11/03 20:33:44;;;;;;;7.60;3.70;;;;;;;;;;6186628;28;20145;-94
2023/11/03 20:36:46;;;;;;;5.47;3.13;;;;;;;;;;6223810;28;20050;-93
2023/11/03 20:39:49;;;;;;;5.35;3.58;;;;;;;;;;6218717;28;20065;-94
2023/11/03 20:42:51;;;;;;;6.75;2.80;;;;;;;;;;6220359;28;20061;-93
2023/11/03 20:45:54;;;;;;;5.18;3.05;;;;;;;;;;6216783;28;20144;-95
2023/11/03 20:52:12;;;;;;;6.38;3.10;;;;;;;;;;6220520;28;20465;-95
2023/11/03 20:55:14;;;;;;;4.30;3.00;;;;;;;;;;6219658;28;20195;-93
2023/11/03 20:58:16;;;;;;;5.38;3.03;;;;;;;;;;6219194;28;20072;-93
2023/11/03 21:01:25;;;;;;;5.47;2.60;;;;;;;;;;6211703;28;20234;-92
2023/11/03 21:04:29;;;;;;;4.60;2.63;;;;;;;;;;6210769;28;20050;-94
2023/11/03 21:07:31;;;;;;;4.55;2.88;;;;;;;;;;6219736;28;20050;-93
2023/11/03 21:10:33;;;;;;;4.20;2.78;;;;;;;;;;6218657;28;20334;-94
2023/11/03 21:13:38;;;;;;;5.15;2.75;;;;;;;;;;6217495;28;20054;-94
2023/11/03 21:16:46;;;;;;;4.38;2.65;;;;;;;;;;6218177;28;20062;-91
2023/11/03 21:19:52;;;;;;;5.28;2.72;;;;;;;;;;6197230;28;20277;-92
2023/11/03 21:22:54;;;;;;;5.72;3.30;;;;;;;;;;6222677;28;20121;-93
2023/11/03 21:25:57;;;;;;;5.80;2.97;;;;;;;;;;6214009;28;20118;-91
2023/11/03 21:29:01;;;;;;;5.65;3.20;;;;;;;;;;6222461;28;20054;-93
2023/11/03 21:32:07;;;;;;;5.25;2.88;;;;;;;;;;6211087;28;20058;-92
2023/11/03 21:35:26;;;;;;;5.63;3.13;;;;;;;;;;6228510;28;20049;-94
2023/11/03 21:38:31;;;;;;;5.55;3.28;;;;;;;;;;6218715;28;20058;-93
2023/11/03 21:41:33;;;;;;;4.35;2.85;;;;;;;;;;6219090;28;20547;-92
2023/11/03 21:44:36;;;;;;;5.32;2.85;;;;;;;;;;6218991;28;20114;-94
2023/11/03 21:47:39;;;;;;;4.40;2.63;;;;;;;;;;6218659;28;20049;-93
2023/11/03 21:50:41;;;;;;;4.30;2.97;;;;;;;;;;6222701;28;20137;-92
2023/11/03 21:53:43;;;;;;;5.07;2.70;;;;;;;;;;6218940;28;20050;-94
2023/11/03 21:56:46;;;;;;;7.20;2.90;;;;;;;;;;6217480;28;20065;-93
2023/11/03 21:59:48;;;;;;;6.07;3.05;;;;;;;;;;6221027;28;20050;-92
2023/11/03 22:02:51;;;;;;;5.53;3.05;;;;;;;;;;6218421;28;20065;-93
2023/11/03 22:05:53;;;;;;;5.35;2.97;;;;;;;;;;6211915;28;20057;-93
2023/11/03 22:08:55;;;;;;;5.10;2.60;;;;;;;;;;6218938;28;20061;-95
2023/11/03 22:11:57;;;;;;;6.38;3.03;;;;;;;;;;6202844;28;20325;-93
2023/11/03 22:14:59;;;;;;;6.65;3.50;;;;;;;;;;6215820;28;20113;-91
2023/11/03 22:18:03;;;;;;;7.97;3.60;;;;;;;;;;6218356;28;20052;-94
2023/11/03 22:21:12;;;;;;;5.30;3.40;;;;;;;;;;6218834;28;20046;-93
2023/11/03 22:24:14;;;;;;;8.90;3.40;;;;;;;;;;6215510;28;20236;-94
2023/11/03 22:27:16;;;;;;;6.55;3.78;;;;;;;;;;6217470;28;20112;-93
2023/11/03 22:30:18;;;;;;;6.95;3.88;;;;;;;;;;6221261;28;20050;-96
2023/11/03 22:33:21;;;;;;;8.38;3.50;;;;;;;;;;6217209;28;20061;-93
2023/11/03 22:36:24;;;;;;;8.45;3.65;;;;;;;;;;6173513;28;20047;-93
2023/11/03 22:39:26;;;;;;;6.65;3.70;;;;;;;;;;6170102;28;20301;-96
2023/11/03 22:42:28;;;;;;;6.07;3.28;;;;;;;;;;6168637;28;20095;-94
2023/11/03 22:48:49;;;;;;;5.65;3.55;;;;;;;;;;6161069;28;20039;-96
2023/11/03 22:51:51;;;;;;;6.75;3.28;;;;;;;;;;6178806;28;20339;-94
2023/11/03 22:54:54;;;;;;;5.22;3.33;;;;;;;;;;6167708;28;20120;-94
2023/11/03 22:58:15;;;;;;;7.43;3.10;;;;;;;;;;6161409;28;20047;-94
2023/11/03 23:01:18;;;;;;;5.80;3.00;;;;;;;;;;6170308;28;20097;-94
2023/11/03 23:04:26;;;;;;;6.13;2.75;;;;;;;;;;6172854;28;20297;-92
2023/11/03 23:07:32;;;;;;;6.15;3.45;;;;;;;;;;6162816;28;20051;-92
2023/11/03 23:10:35;;;;;;;4.07;2.50;;;;;;;;;;6170997;28;20075;-95
2023/11/03 23:13:38;;;;;;;9.50;3.13;;;;;;;;;;6169694;28;20059;-91
2023/11/03 23:16:40;;;;;;;5.97;2.60;;;;;;;;;;6169619;28;20109;-93
2023/11/03 23:19:44;;;;;;;4.32;2.83;;;;;;;;;;6170105;28;20055;-94
2023/11/03 23:22:46;;;;;;;4.20;2.65;;;;;;;;;;6169509;28;21284;-93
2023/11/03 23:25:49;;;;;;;4.22;2.42;;;;;;;;;;6167327;28;20063;-96
2023/11/03 23:28:52;;;;;;;4.25;2.20;;;;;;;;;;6168011;28;20102;-92